createdAt,value
2022-12-11T00:00:04.790Z,1.20
2022-12-11T00:02:08.061Z,1.20
2022-12-11T00:04:10.669Z,1.20
2022-12-11T00:06:14.488Z,1.20
2022-12-11T00:08:17.054Z,1.20
2022-12-11T00:10:19.605Z,1.20
2022-12-11T00:12:22.166Z,1.20
2022-12-11T00:14:24.638Z,1.20
2022-12-11T00:18:01.145Z,1.20
2022-12-11T00:20:04.671Z,1.20
2022-12-11T00:22:07.873Z,1.10
2022-12-11T00:24:10.358Z,1.20
2022-12-11T00:26:14.182Z,1.10
2022-12-11T00:28:17.384Z,1.20
2022-12-11T00:30:19.987Z,1.10
2022-12-11T00:32:23.612Z,1.10
2022-12-11T00:34:26.489Z,1.10
2022-12-11T00:36:29.081Z,1.10
2022-12-11T00:38:31.567Z,1.10
2022-12-11T00:40:34.158Z,1.10
2022-12-11T00:42:36.729Z,1.10
2022-12-11T00:44:39.200Z,1.10
2022-12-11T00:46:42.964Z,1.10
2022-12-11T00:48:46.290Z,1.10
2022-12-11T00:50:48.951Z,1.10
2022-12-11T00:52:51.427Z,1.10
2022-12-11T00:54:53.968Z,1.00
2022-12-11T00:56:56.482Z,1.00
2022-12-11T00:58:58.966Z,1.10
2022-12-11T01:01:05.673Z,1.00
2022-12-11T01:03:08.297Z,1.00
2022-12-11T01:05:11.428Z,1.10
2022-12-11T01:07:14.071Z,1.00
2022-12-11T01:09:34.892Z,1.00
2022-12-11T01:11:37.469Z,1.00
2022-12-11T01:13:40.440Z,1.10
2022-12-11T01:15:44.030Z,0.60
2022-12-11T01:17:46.593Z,1.00
2022-12-11T01:19:49.454Z,0.90
2022-12-11T01:21:52.175Z,1.00
2022-12-11T01:23:54.833Z,0.90
2022-12-11T01:25:57.505Z,1.00
2022-12-11T01:27:59.980Z,1.00
2022-12-11T01:30:02.487Z,1.00
2022-12-11T01:32:05.179Z,1.00
2022-12-11T01:34:07.655Z,1.00
2022-12-11T01:36:11.375Z,1.00
2022-12-11T01:38:39.760Z,1.00
2022-12-11T01:40:41.791Z,0.90
2022-12-11T01:42:45.540Z,0.90
2022-12-11T01:45:07.637Z,0.90
2022-12-11T01:47:10.664Z,0.90
2022-12-11T01:49:13.928Z,0.90
2022-12-11T01:51:16.617Z,0.90
2022-12-11T01:53:21.112Z,0.80
2022-12-11T01:55:23.609Z,0.80
2022-12-11T01:57:26.092Z,0.80
2022-12-11T01:59:30.388Z,0.80
2022-12-11T02:01:34.888Z,0.80
2022-12-11T02:03:37.792Z,0.70
2022-12-11T02:05:40.314Z,0.80
2022-12-11T02:07:44.453Z,0.70
2022-12-11T02:09:47.508Z,0.30
2022-12-11T02:11:53.412Z,0.80
2022-12-11T02:13:57.709Z,0.70
2022-12-11T02:16:02.060Z,0.80
2022-12-11T02:18:09.913Z,0.70
2022-12-11T02:20:14.223Z,0.70
2022-12-11T02:22:18.632Z,0.70
2022-12-11T02:24:26.868Z,0.70
2022-12-11T02:26:36.112Z,0.60
2022-12-11T02:28:39.953Z,0.60
2022-12-11T02:30:43.272Z,0.60
2022-12-11T02:32:47.654Z,0.60
2022-12-11T02:34:51.961Z,0.70
2022-12-11T02:36:56.257Z,0.70
2022-12-11T02:39:00.530Z,0.70
2022-12-11T02:41:04.537Z,1.10
2022-12-11T02:43:07.945Z,0.70
2022-12-11T02:45:12.222Z,0.60
2022-12-11T02:47:16.653Z,0.70
2022-12-11T02:49:20.729Z,0.70
2022-12-11T02:51:24.641Z,0.70
2022-12-11T02:53:28.532Z,0.70
2022-12-11T02:55:32.454Z,0.70
2022-12-11T02:57:37.637Z,0.70
2022-12-11T02:59:41.249Z,0.70
2022-12-11T03:01:43.759Z,0.70
2022-12-11T03:03:46.359Z,0.70
2022-12-11T03:05:48.821Z,0.70
2022-12-11T03:07:51.352Z,0.70
2022-12-11T03:09:54.391Z,0.70
2022-12-11T03:11:56.846Z,0.70
2022-12-11T03:14:01.889Z,0.70
2022-12-11T03:16:07.059Z,0.70
2022-12-11T03:18:11.452Z,0.70
2022-12-11T03:20:16.073Z,0.80
2022-12-11T03:22:21.563Z,0.80
2022-12-11T03:24:25.889Z,0.80
2022-12-11T03:26:30.006Z,0.70
2022-12-11T03:28:34.432Z,0.70
2022-12-11T03:30:37.260Z,0.80
2022-12-11T03:32:41.699Z,0.80
2022-12-11T03:34:45.401Z,0.80
2022-12-11T03:36:48.969Z,0.80
2022-12-11T03:38:53.313Z,0.80
2022-12-11T03:40:57.782Z,0.80
2022-12-11T03:43:00.713Z,0.80
2022-12-11T03:45:04.830Z,0.80
2022-12-11T03:47:08.261Z,0.80
2022-12-11T03:49:13.263Z,0.90
2022-12-11T03:51:16.646Z,0.80
2022-12-11T03:53:20.228Z,0.90
2022-12-11T03:55:23.133Z,0.90
2022-12-11T03:57:27.464Z,0.90
2022-12-11T03:59:29.947Z,0.90
2022-12-11T04:01:32.455Z,1.00
2022-12-11T04:03:35.093Z,1.00
2022-12-11T04:05:37.601Z,0.90
2022-12-11T04:07:40.125Z,1.00
2022-12-11T04:09:42.687Z,1.00
2022-12-11T04:11:45.157Z,1.00
2022-12-11T04:13:49.906Z,1.00
2022-12-11T04:15:52.561Z,1.00
2022-12-11T04:18:13.354Z,1.00
2022-12-11T04:20:33.998Z,0.90
2022-12-11T04:22:55.964Z,1.00
2022-12-11T04:24:58.840Z,1.10
2022-12-11T04:27:01.853Z,1.10
2022-12-11T04:29:04.341Z,1.10
2022-12-11T04:31:06.885Z,1.10
2022-12-11T04:33:09.488Z,1.10
2022-12-11T04:35:12.942Z,1.10
2022-12-11T04:37:15.643Z,1.10
2022-12-11T04:39:18.216Z,1.10
2022-12-11T04:41:20.700Z,1.10
2022-12-11T04:43:23.152Z,1.10
2022-12-11T04:45:25.700Z,1.10
2022-12-11T04:47:28.206Z,1.10
2022-12-11T04:49:30.676Z,1.00
2022-12-11T04:51:33.330Z,1.10
2022-12-11T04:53:36.148Z,1.10
2022-12-11T04:55:39.646Z,1.10
2022-12-11T04:57:42.421Z,1.20
2022-12-11T04:59:44.884Z,1.10
2022-12-11T05:01:48.063Z,1.20
2022-12-11T05:03:51.401Z,1.20
2022-12-11T05:05:53.992Z,1.10
2022-12-11T05:07:56.487Z,1.10
2022-12-11T05:09:59.096Z,1.10
2022-12-11T05:12:01.572Z,1.10
2022-12-11T05:14:04.084Z,1.10
2022-12-11T05:16:08.118Z,1.10
2022-12-11T05:18:10.612Z,1.00
2022-12-11T05:20:13.098Z,0.90
2022-12-11T05:22:16.096Z,0.80
2022-12-11T05:24:18.655Z,0.70
2022-12-11T05:26:21.149Z,0.70
2022-12-11T05:28:24.848Z,0.60
2022-12-11T05:30:27.308Z,0.60
2022-12-11T05:32:29.802Z,0.60
2022-12-11T05:34:32.317Z,0.60
2022-12-11T05:36:35.320Z,0.70
2022-12-11T05:38:37.912Z,0.80
2022-12-11T05:40:40.508Z,0.70
2022-12-11T05:42:43.018Z,0.70
2022-12-11T05:44:45.972Z,0.70
2022-12-11T05:46:49.474Z,0.70
2022-12-11T05:48:52.983Z,0.70
2022-12-11T05:50:58.604Z,0.70
2022-12-11T05:53:02.328Z,0.70
2022-12-11T05:55:05.727Z,0.70
2022-12-11T05:57:08.365Z,0.70
2022-12-11T05:59:13.187Z,0.70
2022-12-11T06:01:17.681Z,0.70
2022-12-11T06:03:20.408Z,0.60
2022-12-11T06:05:23.272Z,0.90
2022-12-11T06:07:25.959Z,1.00
2022-12-11T06:09:28.654Z,0.90
2022-12-11T06:11:32.279Z,0.80
2022-12-11T06:13:34.908Z,0.80
2022-12-11T06:15:37.396Z,0.80
2022-12-11T06:17:39.886Z,0.80
2022-12-11T06:19:42.359Z,0.80
2022-12-11T06:21:45.344Z,0.90
2022-12-11T06:23:48.639Z,1.00
2022-12-11T06:25:51.189Z,1.00
2022-12-11T06:27:53.696Z,1.00
2022-12-11T06:29:56.707Z,1.00
2022-12-11T06:31:59.215Z,1.10
2022-12-11T06:34:01.803Z,1.10
2022-12-11T06:36:05.096Z,1.20
2022-12-11T06:38:07.581Z,1.10
2022-12-11T06:40:11.586Z,1.10
2022-12-11T06:42:14.054Z,1.10
2022-12-11T06:44:16.551Z,1.20
2022-12-11T06:46:19.789Z,1.40
2022-12-11T06:48:22.352Z,1.20
2022-12-11T06:50:24.915Z,1.20
2022-12-11T06:52:27.487Z,1.20
2022-12-11T06:54:29.993Z,1.20
2022-12-11T06:56:34.268Z,1.10
2022-12-11T06:58:37.494Z,1.10
2022-12-11T07:00:40.103Z,1.20
2022-12-11T07:02:42.665Z,1.20
2022-12-11T07:04:46.804Z,1.20
2022-12-11T07:06:49.841Z,1.20
2022-12-11T07:08:52.798Z,1.20
2022-12-11T07:10:55.283Z,1.10
2022-12-11T07:12:57.778Z,1.00
2022-12-11T07:15:00.315Z,1.10
2022-12-11T07:17:03.247Z,1.20
2022-12-11T07:19:05.821Z,1.20
2022-12-11T07:21:09.815Z,1.10
2022-12-11T07:23:12.298Z,1.20
2022-12-11T07:25:14.924Z,1.10
2022-12-11T07:27:17.503Z,1.20
2022-12-11T07:29:19.973Z,1.10
2022-12-11T07:31:24.394Z,1.10
2022-12-11T07:33:26.988Z,1.10
2022-12-11T07:35:29.458Z,1.20
2022-12-11T07:37:31.951Z,1.20
2022-12-11T07:39:34.457Z,1.20
2022-12-11T07:41:37.184Z,1.20
2022-12-11T07:43:42.088Z,1.20
2022-12-11T07:45:44.573Z,1.20
2022-12-11T07:47:47.165Z,1.20
2022-12-11T07:49:49.781Z,1.20
2022-12-11T07:51:52.288Z,1.30
2022-12-11T07:53:55.486Z,1.30
2022-12-11T07:55:58.931Z,1.20
2022-12-11T07:58:01.441Z,1.20
2022-12-11T08:00:05.237Z,1.20
2022-12-11T08:02:10.580Z,1.20
2022-12-11T08:04:14.956Z,1.10
2022-12-11T08:06:17.774Z,1.00
2022-12-11T08:08:20.384Z,1.00
2022-12-11T08:10:23.000Z,0.90
2022-12-11T08:12:25.577Z,1.00
2022-12-11T08:14:28.086Z,1.10
2022-12-11T08:16:30.740Z,1.20
2022-12-11T08:18:34.211Z,1.20
2022-12-11T08:20:38.566Z,1.30
2022-12-11T08:22:41.129Z,1.30
2022-12-11T08:24:44.046Z,1.30
2022-12-11T08:26:46.962Z,1.20
2022-12-11T08:28:49.489Z,1.20
2022-12-11T08:30:51.984Z,1.30
2022-12-11T08:32:54.466Z,1.30
2022-12-11T08:34:57.488Z,1.30
2022-12-11T08:36:59.999Z,1.10
2022-12-11T08:39:02.471Z,1.20
2022-12-11T08:41:08.873Z,1.20
2022-12-11T08:43:11.381Z,1.20
2022-12-11T08:45:14.008Z,1.10
2022-12-11T08:47:16.561Z,1.10
2022-12-11T08:49:19.161Z,1.10
2022-12-11T08:51:22.785Z,1.10
2022-12-11T08:53:25.251Z,1.10
2022-12-11T08:55:27.833Z,1.20
2022-12-11T08:57:30.337Z,1.20
2022-12-11T08:59:32.920Z,1.10
2022-12-11T09:01:35.436Z,1.10
2022-12-11T09:03:38.846Z,1.00
2022-12-11T09:05:41.325Z,1.00
2022-12-11T09:07:44.111Z,1.00
2022-12-11T09:09:46.778Z,0.90
2022-12-11T09:11:49.689Z,0.90
2022-12-11T09:13:52.612Z,0.90
2022-12-11T09:15:55.124Z,0.90
2022-12-11T09:17:57.655Z,0.90
2022-12-11T09:20:00.311Z,0.90
2022-12-11T09:22:02.819Z,0.90
2022-12-11T09:24:06.024Z,0.90
2022-12-11T09:26:10.765Z,0.90
2022-12-11T09:28:13.269Z,1.00
2022-12-11T09:30:15.772Z,1.00
2022-12-11T09:32:18.288Z,1.00
2022-12-11T09:34:24.775Z,1.00
2022-12-11T09:36:25.879Z,1.00
2022-12-11T09:38:28.556Z,1.00
2022-12-11T09:40:32.177Z,1.00
2022-12-11T09:42:38.208Z,1.10
2022-12-11T09:44:42.963Z,1.10
2022-12-11T09:46:46.535Z,1.10
2022-12-11T09:48:49.691Z,1.20
2022-12-11T09:50:53.749Z,1.30
2022-12-11T09:53:00.428Z,1.30
2022-12-11T09:55:04.598Z,1.20
2022-12-11T09:57:10.825Z,1.30
2022-12-11T09:59:16.358Z,1.30
2022-12-11T10:01:20.958Z,1.30
2022-12-11T10:03:28.666Z,1.30
2022-12-11T10:05:35.951Z,1.20
2022-12-11T10:07:40.240Z,1.20
2022-12-11T10:09:45.579Z,1.20
2022-12-11T10:11:56.346Z,1.10
2022-12-11T10:13:59.245Z,1.20
2022-12-11T10:16:04.025Z,1.10
2022-12-11T10:18:08.371Z,1.20
2022-12-11T10:20:17.349Z,1.20
2022-12-11T10:22:21.000Z,1.30
2022-12-11T10:24:57.862Z,1.30
2022-12-11T10:26:30.076Z,1.30
2022-12-11T10:28:32.564Z,1.30
2022-12-11T10:30:36.873Z,1.30
2022-12-11T10:32:41.632Z,1.30
2022-12-11T10:34:45.901Z,1.40
2022-12-11T10:36:48.421Z,1.30
2022-12-11T10:38:51.063Z,1.30
2022-12-11T10:40:55.524Z,1.20
2022-12-11T10:42:58.049Z,1.20
2022-12-11T10:45:01.444Z,1.20
2022-12-11T10:47:05.576Z,1.20
2022-12-11T10:49:20.768Z,1.30
2022-12-11T10:51:25.040Z,1.30
2022-12-11T10:53:28.469Z,1.30
2022-12-11T10:55:33.144Z,1.30
2022-12-11T10:57:36.974Z,1.30
2022-12-11T10:59:41.350Z,1.30
2022-12-11T11:01:45.631Z,1.20
2022-12-11T11:03:55.240Z,1.20
2022-12-11T11:06:08.820Z,1.30
2022-12-11T11:08:13.496Z,1.30
2022-12-11T11:10:17.657Z,1.30
2022-12-11T11:12:22.345Z,1.40
2022-12-11T11:14:24.884Z,1.40
2022-12-11T11:16:27.429Z,1.20
2022-12-11T11:18:30.590Z,1.10
2022-12-11T11:20:34.288Z,1.20
2022-12-11T11:22:39.083Z,1.20
2022-12-11T11:24:42.481Z,1.20
2022-12-11T11:27:12.382Z,1.10
2022-12-11T11:28:50.972Z,1.10
2022-12-11T11:31:02.060Z,1.20
2022-12-11T11:33:06.731Z,1.20
2022-12-11T11:35:17.333Z,1.20
2022-12-11T11:37:24.720Z,1.30
2022-12-11T11:39:29.158Z,1.20
2022-12-11T11:41:34.134Z,1.10
2022-12-11T11:43:38.996Z,1.10
2022-12-11T11:45:43.289Z,1.10
2022-12-11T11:47:47.863Z,1.20
2022-12-11T11:49:54.560Z,1.20
2022-12-11T11:51:58.960Z,1.20
2022-12-11T11:54:02.836Z,1.20
2022-12-11T11:56:07.811Z,1.20
2022-12-11T11:58:12.973Z,1.20
2022-12-11T12:00:20.143Z,1.20
2022-12-11T12:02:22.773Z,1.30
2022-12-11T12:04:27.204Z,1.20
2022-12-11T12:06:33.957Z,1.20
2022-12-11T12:08:41.086Z,1.20
2022-12-11T12:10:45.797Z,1.20
2022-12-11T12:12:51.590Z,1.30
2022-12-11T12:14:58.548Z,1.30
2022-12-11T12:17:04.369Z,1.30
2022-12-11T12:19:10.034Z,1.30
2022-12-11T12:21:15.715Z,1.30
2022-12-11T12:23:24.191Z,1.30
2022-12-11T12:25:29.230Z,1.30
2022-12-11T12:29:42.817Z,1.30
2022-12-11T12:31:50.650Z,1.30
2022-12-11T12:33:56.257Z,1.30
2022-12-11T12:36:06.563Z,1.30
2022-12-11T12:38:09.265Z,1.30
2022-12-11T12:40:15.523Z,1.30
2022-12-11T12:42:20.170Z,1.20
2022-12-11T12:44:24.358Z,1.10
2022-12-11T12:46:30.478Z,1.20
2022-12-11T12:48:33.623Z,1.30
2022-12-11T12:50:38.899Z,1.20
2022-12-11T12:52:42.074Z,1.20
2022-12-11T12:54:49.387Z,1.30
2022-12-11T12:56:52.081Z,1.30
2022-12-11T12:58:54.837Z,1.30
2022-12-11T13:01:07.734Z,1.20
2022-12-11T13:03:14.049Z,1.30
2022-12-11T13:05:21.717Z,1.30
2022-12-11T13:07:27.912Z,1.30
2022-12-11T13:09:30.823Z,1.30
2022-12-11T13:11:34.525Z,1.30
2022-12-11T13:13:38.081Z,1.30
2022-12-11T13:15:43.078Z,1.30
2022-12-11T13:17:45.835Z,1.30
2022-12-11T13:19:49.645Z,1.30
2022-12-11T13:21:57.250Z,1.30
2022-12-11T13:24:16.622Z,1.30
2022-12-11T13:26:28.488Z,1.30
2022-12-11T13:28:32.629Z,1.60
2022-12-11T13:30:35.133Z,1.30
2022-12-11T13:32:37.688Z,1.30
2022-12-11T13:34:41.931Z,1.30
2022-12-11T13:36:47.719Z,1.30
2022-12-11T13:38:59.516Z,1.30
2022-12-11T13:41:05.495Z,1.40
2022-12-11T13:43:11.365Z,1.50
2022-12-11T13:45:19.736Z,1.50
2022-12-11T13:47:23.024Z,1.50
2022-12-11T13:49:26.336Z,1.50
2022-12-11T13:51:29.932Z,1.50
2022-12-11T13:53:32.757Z,1.50
2022-12-11T13:55:35.564Z,1.50
2022-12-11T13:57:39.845Z,1.50
2022-12-11T13:59:43.542Z,1.50
2022-12-11T14:01:46.045Z,1.50
2022-12-11T14:03:50.435Z,1.50
2022-12-11T14:05:53.616Z,1.40
2022-12-11T14:07:57.029Z,1.50
2022-12-11T14:10:01.226Z,1.40
2022-12-11T14:12:03.977Z,1.50
2022-12-11T14:14:08.297Z,1.40
2022-12-11T14:16:16.562Z,1.50
2022-12-11T14:18:20.898Z,1.40
2022-12-11T14:20:24.606Z,1.50
2022-12-11T14:22:28.080Z,1.50
2022-12-11T14:24:31.233Z,1.50
2022-12-11T14:26:34.858Z,1.50
2022-12-11T14:28:38.289Z,1.70
2022-12-11T14:30:42.674Z,1.40
2022-12-11T14:32:45.562Z,1.40
2022-12-11T14:34:49.547Z,1.40
2022-12-11T14:36:52.126Z,1.40
2022-12-11T14:38:56.262Z,1.40
2022-12-11T14:40:59.517Z,1.40
2022-12-11T14:43:03.828Z,1.40
2022-12-11T14:45:08.969Z,1.40
2022-12-11T14:47:13.468Z,1.40
2022-12-11T14:49:19.416Z,1.40
2022-12-11T14:51:22.504Z,1.40
2022-12-11T14:53:26.440Z,1.40
2022-12-11T14:55:30.562Z,1.40
2022-12-11T14:57:34.753Z,1.40
2022-12-11T14:59:39.392Z,1.40
2022-12-11T15:01:43.156Z,1.40
2022-12-11T15:03:46.327Z,1.40
2022-12-11T15:05:50.784Z,1.40
2022-12-11T15:07:58.462Z,1.40
2022-12-11T15:10:05.016Z,1.40
2022-12-11T15:12:12.379Z,1.40
2022-12-11T15:14:21.684Z,1.40
2022-12-11T15:16:26.578Z,1.40
2022-12-11T15:18:30.648Z,1.40
2022-12-11T15:20:33.121Z,1.40
2022-12-11T15:22:35.926Z,1.40
2022-12-11T15:24:40.101Z,1.50
2022-12-11T15:26:44.667Z,1.50
2022-12-11T15:28:47.167Z,1.50
2022-12-11T15:30:56.094Z,1.50
2022-12-11T15:33:07.475Z,1.50
2022-12-11T15:35:22.135Z,1.40
2022-12-11T15:37:26.993Z,1.60
2022-12-11T15:39:29.486Z,1.50
2022-12-11T15:41:34.332Z,1.50
2022-12-11T15:43:37.563Z,1.50
2022-12-11T15:45:48.793Z,1.50
2022-12-11T15:47:52.290Z,1.40
2022-12-11T15:49:55.816Z,1.40
2022-12-11T15:52:01.199Z,1.30
2022-12-11T15:54:04.653Z,1.40
2022-12-11T15:56:11.094Z,1.40
2022-12-11T15:58:15.629Z,1.40
2022-12-11T16:00:19.501Z,1.40
2022-12-11T16:02:23.697Z,1.40
2022-12-11T16:04:26.769Z,1.50
2022-12-11T16:06:30.555Z,1.50
2022-12-11T16:08:34.457Z,1.40
2022-12-11T16:10:37.631Z,1.50
2022-12-11T16:12:41.208Z,1.40
2022-12-11T16:14:45.512Z,1.50
2022-12-11T16:16:51.839Z,1.50
2022-12-11T16:18:57.923Z,1.50
2022-12-11T16:21:03.152Z,1.50
2022-12-11T16:23:09.013Z,1.50
2022-12-11T16:25:14.222Z,1.50
2022-12-11T16:27:23.111Z,1.40
2022-12-11T16:29:24.380Z,1.40
2022-12-11T16:31:27.216Z,1.40
2022-12-11T16:33:30.318Z,1.40
2022-12-11T16:35:33.065Z,1.40
2022-12-11T16:37:35.605Z,1.40
2022-12-11T16:39:38.450Z,1.40
2022-12-11T16:41:41.020Z,1.40
2022-12-11T16:43:43.574Z,1.40
2022-12-11T16:45:48.049Z,1.40
2022-12-11T16:47:51.200Z,1.40
2022-12-11T16:49:53.905Z,1.40
2022-12-11T16:51:56.405Z,1.40
2022-12-11T16:53:58.899Z,1.40
2022-12-11T16:56:01.361Z,1.50
2022-12-11T16:58:03.985Z,1.40
2022-12-11T17:00:08.197Z,1.40
2022-12-11T17:02:10.891Z,1.50
2022-12-11T17:04:13.371Z,1.50
2022-12-11T17:06:16.749Z,1.50
2022-12-11T17:08:19.323Z,1.60
2022-12-11T17:10:21.882Z,1.70
2022-12-11T17:12:26.396Z,1.70
2022-12-11T17:14:28.979Z,1.70
2022-12-11T17:16:33.350Z,1.60
2022-12-11T17:18:36.329Z,1.60
2022-12-11T17:20:41.213Z,1.60
2022-12-11T17:22:45.510Z,1.70
2022-12-11T17:24:47.977Z,1.60
2022-12-11T17:26:50.490Z,1.50
2022-12-11T17:28:53.057Z,1.50
2022-12-11T17:30:55.610Z,1.50
2022-12-11T17:32:58.493Z,1.40
2022-12-11T17:35:01.083Z,1.40
2022-12-11T17:37:03.778Z,1.50
2022-12-11T17:39:06.372Z,1.50
2022-12-11T17:41:11.420Z,1.50
2022-12-11T17:43:14.770Z,1.40
2022-12-11T17:45:17.485Z,1.40
2022-12-11T17:47:19.993Z,1.30
2022-12-11T17:49:22.640Z,1.40
2022-12-11T17:51:25.158Z,1.30
2022-12-11T17:53:27.761Z,1.20
2022-12-11T17:55:31.073Z,1.20
2022-12-11T17:57:33.848Z,1.30
2022-12-11T17:59:36.356Z,1.30
2022-12-11T18:01:38.873Z,1.30
2022-12-11T18:03:42.272Z,1.30
2022-12-11T18:05:45.284Z,1.20
2022-12-11T18:07:50.544Z,1.20
2022-12-11T18:09:52.061Z,1.10
2022-12-11T18:11:54.545Z,1.10
2022-12-11T18:13:57.112Z,1.10
2022-12-11T18:16:00.872Z,1.20
2022-12-11T18:18:03.802Z,1.20
2022-12-11T18:20:07.317Z,1.10
2022-12-11T18:22:09.829Z,1.20
2022-12-11T18:24:12.344Z,1.10
2022-12-11T18:26:14.952Z,1.10
2022-12-11T18:28:17.766Z,1.10
2022-12-11T18:30:20.484Z,1.10
2022-12-11T18:32:23.321Z,1.10
2022-12-11T18:34:25.823Z,1.10
2022-12-11T18:36:29.097Z,1.10
2022-12-11T18:38:31.717Z,1.10
2022-12-11T18:40:34.227Z,1.10
2022-12-11T18:42:36.729Z,1.10
2022-12-11T18:44:39.238Z,1.00
2022-12-11T18:46:42.520Z,1.10
2022-12-11T18:48:45.547Z,1.00
2022-12-11T18:50:49.049Z,1.00
2022-12-11T18:52:53.155Z,1.00
2022-12-11T18:54:55.676Z,1.00
2022-12-11T18:56:58.150Z,1.00
2022-12-11T18:59:01.653Z,1.10
2022-12-11T19:01:06.906Z,1.10
2022-12-11T19:03:09.777Z,1.10
2022-12-11T19:05:12.944Z,1.10
2022-12-11T19:07:15.525Z,1.10
2022-12-11T19:09:17.988Z,1.10
2022-12-11T19:11:21.836Z,1.10
2022-12-11T19:13:24.400Z,1.10
2022-12-11T19:15:27.680Z,1.10
2022-12-11T19:17:30.410Z,1.10
2022-12-11T19:19:32.908Z,1.10
2022-12-11T19:21:37.147Z,1.10
2022-12-11T19:23:39.937Z,1.10
2022-12-11T19:25:43.383Z,1.00
2022-12-11T19:27:46.961Z,1.00
2022-12-11T19:29:49.684Z,1.10
2022-12-11T19:31:53.397Z,1.00
2022-12-11T19:33:56.000Z,1.00
2022-12-11T19:36:02.084Z,1.00
2022-12-11T19:38:05.006Z,1.00
2022-12-11T19:40:09.656Z,1.10
2022-12-11T19:42:12.692Z,1.10
2022-12-11T19:44:15.224Z,1.10
2022-12-11T19:46:19.271Z,1.10
2022-12-11T19:48:22.244Z,1.00
2022-12-11T19:50:24.732Z,1.00
2022-12-11T19:52:27.634Z,0.90
2022-12-11T19:54:30.143Z,1.00
2022-12-11T19:56:33.274Z,1.10
2022-12-11T19:58:35.776Z,1.20
2022-12-11T20:00:38.341Z,1.20
2022-12-11T20:02:41.108Z,1.30
2022-12-11T20:04:43.882Z,1.30
2022-12-11T20:06:46.893Z,1.30
2022-12-11T20:08:49.452Z,1.40
2022-12-11T20:10:52.113Z,1.30
2022-12-11T20:12:56.038Z,1.40
2022-12-11T20:14:58.544Z,1.40
2022-12-11T20:17:11.842Z,1.30
2022-12-11T20:19:07.694Z,1.20
2022-12-11T20:21:14.130Z,1.20
2022-12-11T20:23:20.963Z,1.20
2022-12-11T20:25:27.378Z,1.20
2022-12-11T20:27:33.750Z,1.20
2022-12-11T20:29:45.733Z,1.10
2022-12-11T20:31:50.521Z,1.00
2022-12-11T20:33:56.345Z,1.00
2022-12-11T20:35:59.600Z,1.00
2022-12-11T20:38:03.108Z,0.90
2022-12-11T20:40:07.182Z,0.90
2022-12-11T20:42:10.097Z,0.90
2022-12-11T20:44:12.730Z,0.90
2022-12-11T20:46:15.723Z,0.80
2022-12-11T20:48:18.496Z,0.80
2022-12-11T20:50:21.748Z,0.90
2022-12-11T20:52:24.597Z,0.90
2022-12-11T20:54:30.818Z,1.00
2022-12-11T20:56:34.517Z,1.00
2022-12-11T20:58:37.767Z,1.00
2022-12-11T21:00:40.841Z,1.10
2022-12-11T21:02:44.174Z,0.90
2022-12-11T21:04:47.142Z,1.00
2022-12-11T21:06:54.021Z,1.00
2022-12-11T21:08:57.506Z,0.90
2022-12-11T21:11:00.429Z,1.00
2022-12-11T21:13:03.317Z,1.00
2022-12-11T21:15:07.771Z,1.00
2022-12-11T21:17:10.321Z,1.00
2022-12-11T21:19:17.327Z,0.90
2022-12-11T21:21:20.410Z,0.90
2022-12-11T21:23:24.403Z,0.90
2022-12-11T21:25:27.527Z,0.80
2022-12-11T21:27:30.546Z,0.80
2022-12-11T21:29:34.148Z,0.90
2022-12-11T21:31:37.074Z,0.90
2022-12-11T21:33:39.645Z,0.90
2022-12-11T21:35:42.191Z,0.90
2022-12-11T21:37:44.661Z,0.80
2022-12-11T21:39:47.166Z,0.80
2022-12-11T21:41:49.741Z,0.70
2022-12-11T21:44:56.545Z,0.70
2022-12-11T21:46:02.098Z,0.70
2022-12-11T21:48:02.905Z,0.70
2022-12-11T21:50:06.263Z,0.70
2022-12-11T21:52:09.037Z,0.70
2022-12-11T21:54:14.425Z,0.70
2022-12-11T21:56:18.205Z,0.60
2022-12-11T21:58:20.673Z,0.60
2022-12-11T22:00:24.073Z,0.60
2022-12-11T22:02:27.030Z,0.60
2022-12-11T22:04:29.565Z,0.60
2022-12-11T22:06:32.089Z,0.60
2022-12-11T22:08:34.561Z,0.60
2022-12-11T22:10:38.006Z,0.70
2022-12-11T22:12:40.753Z,0.70
2022-12-11T22:14:43.245Z,0.70
2022-12-11T22:16:45.959Z,0.70
2022-12-11T22:18:48.887Z,0.70
2022-12-11T22:20:51.512Z,0.70
2022-12-11T22:22:53.964Z,0.70
2022-12-11T22:24:56.512Z,0.70
2022-12-11T22:26:59.257Z,0.70
2022-12-11T22:29:01.758Z,0.70
2022-12-11T22:31:04.354Z,0.80
2022-12-11T22:33:12.090Z,0.80
2022-12-11T22:35:15.057Z,0.90
2022-12-11T22:37:18.333Z,0.80
2022-12-11T22:39:20.914Z,0.80
2022-12-11T22:41:25.220Z,0.90
2022-12-11T22:43:28.234Z,0.80
2022-12-11T22:45:31.143Z,0.90
2022-12-11T22:47:35.028Z,0.90
2022-12-11T22:49:37.540Z,0.90
2022-12-11T22:51:40.472Z,0.90
2022-12-11T22:53:43.042Z,0.90
2022-12-11T22:55:45.501Z,1.00
2022-12-11T22:57:48.014Z,0.90
2022-12-11T22:59:50.645Z,0.90
2022-12-11T23:01:53.154Z,0.90
2022-12-11T23:03:55.870Z,0.80
2022-12-11T23:06:03.342Z,0.80
2022-12-11T23:08:03.445Z,0.70
2022-12-11T23:10:07.660Z,0.70
2022-12-11T23:12:10.138Z,0.70
2022-12-11T23:14:14.325Z,0.70
2022-12-11T23:16:16.923Z,0.80
2022-12-11T23:18:20.613Z,0.70
2022-12-11T23:20:23.097Z,0.70
2022-12-11T23:22:25.705Z,0.70
2022-12-11T23:24:28.163Z,0.70
2022-12-11T23:26:31.257Z,0.80
2022-12-11T23:28:34.175Z,0.80
2022-12-11T23:30:36.708Z,0.80
2022-12-11T23:32:39.461Z,0.80
2022-12-11T23:34:41.964Z,0.90
2022-12-11T23:36:44.552Z,0.80
2022-12-11T23:38:52.622Z,0.80
2022-12-11T23:40:51.344Z,0.90
2022-12-11T23:42:53.833Z,0.90
2022-12-11T23:44:56.828Z,0.90
2022-12-11T23:46:59.315Z,1.00
2022-12-11T23:49:01.980Z,1.00
2022-12-11T23:51:05.629Z,0.90
2022-12-11T23:53:08.321Z,0.90
2022-12-11T23:55:11.415Z,0.80
2022-12-11T23:57:14.560Z,0.80
2022-12-11T23:59:17.153Z,0.70
